Time;durP1;ratioP1;P1;durP2;ratioP2;P2;SDS_P1;SDS_P2;PMS_P1;PMS_P2;Temp;Humidity;BMP_temperature;BMP_pressure;BME280_temperature;BME280_humidity;BME280_pressure;Samples;Min_cycle;Max_cycle;Signal;HPM_P1;HPM_P2
2022/04/17 00:00:17;;;;;;;7.13;6.53;;;7.90;83.30;;;;;;5036034;28;20214;-65
2022/04/17 00:02:44;;;;;;;8.00;7.27;;;7.90;84.40;;;;;;5035537;28;20676;-66
2022/04/17 00:05:10;;;;;;;7.57;7.07;;;7.90;87.20;;;;;;5034992;28;20314;-66
2022/04/17 00:07:36;;;;;;;6.97;6.47;;;7.80;86.10;;;;;;5035389;28;20179;-66
2022/04/17 00:10:03;;;;;;;6.83;6.33;;;7.80;87.90;;;;;;5035557;28;20172;-65
2022/04/17 00:12:29;;;;;;;7.30;6.60;;;7.80;86.60;;;;;;5035336;28;20256;-66
2022/04/17 00:14:55;;;;;;;6.97;6.47;;;7.70;87.30;;;;;;5035173;28;20709;-66
2022/04/17 00:17:22;;;;;;;8.27;7.53;;;7.70;87.30;;;;;;5035324;28;20221;-66
2022/04/17 00:19:48;;;;;;;7.53;6.97;;;7.60;91.20;;;;;;5035248;28;20175;-66
2022/04/17 00:22:14;;;;;;;7.87;7.27;;;7.60;90.80;;;;;;5035710;28;20249;-66
2022/04/17 00:24:40;;;;;;;10.30;7.30;;;7.50;93.20;;;;;;5034918;28;20541;-66
2022/04/17 00:27:06;;;;;;;7.33;6.83;;;7.40;94.00;;;;;;5035356;28;20222;-65
2022/04/17 00:29:31;;;;;;;7.87;7.17;;;7.30;93.30;;;;;;5034641;28;20175;-66
2022/04/17 00:31:57;;;;;;;8.50;7.70;;;7.20;95.10;;;;;;5034993;28;20267;-66
2022/04/17 00:34:23;;;;;;;8.30;7.70;;;7.00;95.80;;;;;;5035016;28;20664;-66
2022/04/17 00:36:49;;;;;;;8.50;7.90;;;7.00;95.80;;;;;;5034058;28;20202;-66
2022/04/17 00:39:15;;;;;;;8.97;8.03;;;6.90;94.50;;;;;;5035379;28;20199;-66
2022/04/17 00:41:40;;;;;;;7.80;7.30;;;6.80;97.70;;;;;;5034941;28;20171;-66
2022/04/17 00:44:11;;;;;;;8.47;7.87;;;6.70;98.60;;;;;;5034749;28;20302;-66
2022/04/17 00:46:37;;;;;;;8.60;7.60;;;6.60;96.90;;;;;;5049331;28;20175;-65
2022/04/17 00:49:03;;;;;;;8.90;8.23;;;6.60;98.40;;;;;;5035014;28;20187;-65
2022/04/17 00:51:30;;;;;;;8.90;8.20;;;6.60;99.90;;;;;;5034862;28;20191;-66
2022/04/17 00:53:57;;;;;;;8.20;7.50;;;6.60;99.50;;;;;;5034942;28;20195;-66
2022/04/17 00:56:25;;;;;;;7.77;7.27;;;6.60;99.90;;;;;;5033565;28;20176;-65
2022/04/17 00:58:51;;;;;;;8.07;7.47;;;6.50;99.90;;;;;;5034643;28;20207;-66
2022/04/17 01:01:17;;;;;;;7.60;7.00;;;6.50;99.90;;;;;;5034819;28;20820;-66
2022/04/17 01:03:42;;;;;;;8.57;7.87;;;6.50;99.90;;;;;;5034198;28;20210;-66
2022/04/17 01:06:08;;;;;;;8.60;7.80;;;6.60;99.90;;;;;;5034269;28;20783;-66
2022/04/17 01:08:41;;;;;;;8.43;7.67;;;6.60;99.90;;;;;;5034760;28;20172;-66
2022/04/17 01:11:07;;;;;;;9.77;8.87;;;6.60;99.90;;;;;;5034463;28;20187;-66
2022/04/17 01:13:34;;;;;;;9.70;8.90;;;6.70;99.90;;;;;;5034348;28;20266;-66
2022/04/17 01:16:05;;;;;;;8.37;7.50;;;6.70;99.90;;;;;;5034143;28;20175;-65
2022/04/17 01:18:50;;;;;;;8.27;7.57;;;6.70;99.90;;;;;;5034634;28;20691;-66
2022/04/17 01:21:18;;;;;;;8.13;7.43;;;6.70;99.90;;;;;;5034860;28;20177;-66
2022/04/17 01:29:12;;;;;;;8.50;7.90;;;6.60;99.90;;;;;;5035129;28;20604;-65
2022/04/17 01:31:37;;;;;;;8.73;8.20;;;6.60;99.90;;;;;;5034130;28;20219;-65
2022/04/17 01:34:03;;;;;;;9.23;8.53;;;6.60;99.90;;;;;;5033144;28;20199;-66
2022/04/17 01:36:28;;;;;;;8.87;8.27;;;6.60;99.90;;;;;;5034286;28;20187;-65
2022/04/17 01:38:54;;;;;;;9.27;8.57;;;6.50;99.90;;;;;;5034787;28;20211;-65
2022/04/17 01:41:20;;;;;;;8.10;7.43;;;6.50;99.90;;;;;;5034662;28;20172;-66
2022/04/17 01:43:45;;;;;;;7.63;7.13;;;6.40;99.90;;;;;;5032811;28;20696;-66
2022/04/17 01:46:11;;;;;;;8.13;7.53;;;6.40;99.90;;;;;;5034435;28;20645;-66
2022/04/17 01:48:36;;;;;;;8.83;8.13;;;6.30;99.90;;;;;;5032743;28;20183;-66
2022/04/17 01:51:02;;;;;;;8.43;7.73;;;6.30;99.90;;;;;;5034128;28;20180;-67
2022/04/17 01:53:27;;;;;;;8.47;7.77;;;6.20;99.90;;;;;;5034097;28;20223;-67
2022/04/17 01:55:53;;;;;;;7.97;7.37;;;6.20;99.90;;;;;;5033210;28;20172;-67
2022/04/17 01:58:19;;;;;;;8.83;7.97;;;6.30;99.90;;;;;;5032354;28;20211;-66
2022/04/17 02:00:44;;;;;;;7.83;7.33;;;6.30;99.90;;;;;;5034204;28;20219;-67
2022/04/17 02:03:10;;;;;;;8.43;7.67;;;6.30;99.90;;;;;;5034004;28;20216;-67
2022/04/17 02:05:35;;;;;;;7.63;7.07;;;6.30;99.90;;;;;;5033440;28;20613;-66
2022/04/17 02:08:01;;;;;;;8.13;7.37;;;6.30;99.90;;;;;;5033756;28;20258;-66
2022/04/17 02:10:26;;;;;;;8.13;7.53;;;6.40;99.90;;;;;;5033822;28;20175;-66
2022/04/17 02:12:52;;;;;;;7.97;7.37;;;6.30;99.90;;;;;;5033616;28;20281;-66
2022/04/17 02:15:18;;;;;;;8.30;7.70;;;6.30;99.90;;;;;;5033718;28;20238;-66
2022/04/17 02:17:43;;;;;;;8.17;7.03;;;6.20;99.90;;;;;;5033554;28;20680;-66
2022/04/17 02:20:12;;;;;;;9.27;8.53;;;6.20;99.90;;;;;;5033117;28;20175;-66
2022/04/17 02:22:38;;;;;;;8.47;7.70;;;6.20;99.90;;;;;;5033375;28;20679;-66
2022/04/17 02:25:04;;;;;;;9.13;8.23;;;6.10;99.90;;;;;;5032710;28;20207;-65
2022/04/17 02:27:29;;;;;;;8.87;8.10;;;6.10;99.90;;;;;;5033955;28;20563;-65
2022/04/17 02:29:55;;;;;;;8.13;7.40;;;6.00;99.90;;;;;;5033421;28;20186;-66
2022/04/17 02:32:20;;;;;;;7.93;7.43;;;5.90;99.90;;;;;;5041807;28;20183;-65
2022/04/17 02:34:46;;;;;;;8.63;8.03;;;5.80;99.90;;;;;;5046668;28;20182;-66
2022/04/17 02:37:12;;;;;;;10.40;8.70;;;5.70;99.90;;;;;;5049917;28;20581;-64
2022/04/17 02:39:38;;;;;;;8.17;7.57;;;5.70;99.90;;;;;;5042974;28;20182;-65
2022/04/17 02:42:04;;;;;;;8.37;7.77;;;5.70;99.90;;;;;;5055815;28;20179;-65
2022/04/17 02:44:29;;;;;;;8.50;7.90;;;5.60;99.90;;;;;;5035990;28;20203;-65
2022/04/17 02:49:39;;;;;;;8.20;7.47;;;5.50;99.90;;;;;;5034020;28;20183;-66
2022/04/17 02:52:05;;;;;;;9.57;8.07;;;5.50;99.90;;;;;;5033325;28;20641;-66
2022/04/17 02:54:31;;;;;;;8.70;8.10;;;5.40;99.90;;;;;;5032607;28;20267;-66
2022/04/17 02:56:56;;;;;;;8.50;7.87;;;5.30;99.90;;;;;;5031971;28;20170;-66
2022/04/17 02:59:22;;;;;;;9.00;8.20;;;5.30;99.90;;;;;;5033045;28;20203;-65
2022/04/17 03:07:15;;;;;;;9.13;8.27;;;5.20;99.90;;;;;;5037726;28;20202;-66
2022/04/17 03:09:41;;;;;;;8.43;7.73;;;5.20;99.90;;;;;;5037842;28;20183;-66
2022/04/17 03:12:07;;;;;;;8.50;7.90;;;5.20;99.90;;;;;;5037854;28;20184;-66
2022/04/17 03:14:32;;;;;;;7.83;7.23;;;5.10;99.90;;;;;;5037688;28;20558;-65
2022/04/17 03:16:58;;;;;;;7.93;7.43;;;5.10;99.90;;;;;;5037498;28;20229;-66
2022/04/17 03:19:23;;;;;;;8.33;7.63;;;5.10;99.90;;;;;;5038847;28;20179;-66
2022/04/17 03:21:49;;;;;;;8.90;8.20;;;5.10;99.90;;;;;;5038564;28;20210;-65
2022/04/17 03:24:15;;;;;;;7.97;7.37;;;5.10;99.90;;;;;;5054082;28;20280;-64
2022/04/17 03:26:41;;;;;;;8.87;8.17;;;5.00;99.90;;;;;;5038218;28;20199;-65
2022/04/17 03:29:07;;;;;;;9.17;8.00;;;5.10;99.90;;;;;;5037108;28;20640;-65
2022/04/17 03:31:33;;;;;;;7.73;7.13;;;5.10;99.90;;;;;;5036723;28;20535;-65
2022/04/17 03:33:58;;;;;;;8.53;7.90;;;5.00;99.90;;;;;;5037404;28;20219;-65
2022/04/17 03:36:24;;;;;;;9.17;8.37;;;5.00;99.90;;;;;;5037995;28;20179;-65
2022/04/17 03:38:49;;;;;;;9.33;8.03;;;4.90;99.90;;;;;;5037916;28;20294;-65
2022/04/17 03:41:15;;;;;;;8.47;7.83;;;5.00;99.90;;;;;;5037466;28;20168;-65
2022/04/17 03:43:42;;;;;;;8.90;8.20;;;5.00;99.90;;;;;;5083802;22;20295;-66
2022/04/17 03:46:07;;;;;;;9.00;8.23;;;4.90;99.90;;;;;;5093292;28;20545;-66
2022/04/17 03:48:33;;;;;;;8.87;8.17;;;4.90;99.90;;;;;;5094878;28;20174;-67
2022/04/17 03:50:59;;;;;;;9.33;8.57;;;4.80;99.90;;;;;;5094810;28;20240;-67
2022/04/17 03:53:24;;;;;;;8.07;7.57;;;4.80;99.90;;;;;;5093398;28;20201;-67
2022/04/17 03:55:50;;;;;;;8.47;7.83;;;4.80;99.90;;;;;;5093041;28;20696;-67
2022/04/17 03:58:15;;;;;;;8.30;7.77;;;4.80;99.90;;;;;;5094182;28;20209;-67
2022/04/17 04:00:41;;;;;;;9.43;8.33;;;4.80;99.90;;;;;;5093509;28;20219;-67
2022/04/17 04:03:06;;;;;;;8.43;7.83;;;4.80;99.90;;;;;;5094563;28;20196;-66
2022/04/17 04:05:32;;;;;;;8.57;7.90;;;4.80;99.90;;;;;;5094249;28;20181;-65
2022/04/17 04:07:57;;;;;;;8.77;8.17;;;4.80;99.90;;;;;;5092854;28;20185;-65
2022/04/17 04:10:23;;;;;;;9.13;8.13;;;4.70;99.90;;;;;;5093256;28;20186;-67
2022/04/17 04:12:49;;;;;;;7.77;7.17;;;4.70;99.90;;;;;;5091688;28;20642;-67
2022/04/17 04:15:15;;;;;;;8.43;7.90;;;4.80;99.90;;;;;;5093994;28;20216;-66
2022/04/17 04:17:40;;;;;;;9.03;8.30;;;4.80;99.90;;;;;;5092758;28;20201;-66
2022/04/17 04:20:07;;;;;;;7.93;7.43;;;4.80;99.90;;;;;;5094266;28;20177;-67
2022/04/17 04:22:32;;;;;;;8.80;8.03;;;4.80;99.90;;;;;;5093225;28;20656;-66
2022/04/17 04:24:58;;;;;;;8.97;8.17;;;4.70;99.90;;;;;;5093735;28;20209;-66
2022/04/17 04:30:09;;;;;;;8.63;8.03;;;4.70;99.90;;;;;;5094115;28;20189;-66
2022/04/17 04:32:35;;;;;;;8.67;7.90;;;4.60;99.90;;;;;;5092787;28;20660;-66
2022/04/17 04:35:01;;;;;;;8.57;7.90;;;4.60;99.90;;;;;;5093597;28;20265;-67
2022/04/17 04:37:27;;;;;;;8.90;8.07;;;4.70;99.90;;;;;;5093898;28;20197;-67
2022/04/17 04:39:52;;;;;;;8.80;8.10;;;4.60;99.90;;;;;;5092406;28;20182;-67
2022/04/17 04:42:21;;;;;;;9.20;8.60;;;4.60;99.90;;;;;;5094156;28;20181;-67
2022/04/17 04:44:47;;;;;;;9.00;8.30;;;4.60;99.90;;;;;;5092141;28;20213;-66
2022/04/17 04:47:13;;;;;;;8.10;7.47;;;4.60;99.90;;;;;;5093687;28;20177;-67
2022/04/17 04:49:39;;;;;;;9.70;8.90;;;4.60;99.90;;;;;;5092479;28;20260;-67
2022/04/17 04:52:06;;;;;;;8.87;8.10;;;4.60;99.90;;;;;;5093586;28;20816;-67
2022/04/17 04:54:32;;;;;;;9.63;8.27;;;4.60;99.90;;;;;;5092482;28;20216;-67
2022/04/17 04:56:58;;;;;;;9.50;8.63;;;4.60;99.90;;;;;;5092814;28;20166;-67
2022/04/17 04:59:24;;;;;;;9.87;9.07;;;4.50;99.90;;;;;;5092332;28;20688;-67
2022/04/17 05:01:51;;;;;;;8.87;8.17;;;4.50;99.90;;;;;;5093624;28;20166;-66
2022/04/17 05:04:17;;;;;;;8.47;7.87;;;4.40;99.90;;;;;;5093368;28;20198;-67
2022/04/17 05:06:44;;;;;;;9.50;8.60;;;4.40;99.90;;;;;;5093201;28;20199;-67
2022/04/17 05:09:09;;;;;;;9.07;8.33;;;4.40;99.90;;;;;;5093395;28;20511;-67
2022/04/17 05:11:38;;;;;;;8.53;7.93;;;4.40;99.90;;;;;;5091963;28;20169;-66
2022/04/17 05:14:09;;;;;;;9.37;8.53;;;4.40;99.90;;;;;;5091687;28;20208;-67
2022/04/17 05:16:36;;;;;;;9.00;8.23;;;4.50;99.90;;;;;;5091738;28;20268;-66
2022/04/17 05:21:47;;;;;;;8.40;7.80;;;4.80;99.90;;;;;;5093252;28;20188;-67
2022/04/17 05:24:14;;;;;;;7.97;7.37;;;4.90;99.90;;;;;;5091301;28;20280;-66
2022/04/17 05:26:40;;;;;;;7.67;7.17;;;5.10;99.90;;;;;;5093040;28;20585;-66
2022/04/17 05:29:05;;;;;;;8.30;7.70;;;5.20;99.90;;;;;;5093152;28;20264;-66
2022/04/17 05:31:32;;;;;;;7.83;7.23;;;5.30;99.90;;;;;;5093039;28;20169;-66
2022/04/17 05:33:58;;;;;;;8.67;7.93;;;5.40;99.90;;;;;;5091410;28;20202;-67
2022/04/17 05:36:23;;;;;;;8.77;8.17;;;5.50;99.90;;;;;;5091450;28;20184;-67
2022/04/17 05:38:49;;;;;;;8.17;7.43;;;5.60;99.90;;;;;;5092702;28;20201;-67
2022/04/17 05:41:15;;;;;;;8.17;7.47;;;5.70;99.90;;;;;;5093002;28;20200;-66
2022/04/17 05:43:41;;;;;;;7.77;7.27;;;5.80;99.90;;;;;;5092498;28;20209;-67
2022/04/17 05:46:06;;;;;;;7.50;6.97;;;5.90;99.90;;;;;;5092299;28;20166;-67
2022/04/17 05:48:33;;;;;;;7.80;7.20;;;6.00;99.90;;;;;;5093780;28;20251;-66
2022/04/17 05:50:59;;;;;;;8.80;8.00;;;6.00;99.90;;;;;;5092917;28;20191;-66
2022/04/17 05:53:24;;;;;;;7.87;7.17;;;6.10;99.90;;;;;;5093009;28;20296;-66
2022/04/17 05:55:50;;;;;;;8.17;7.17;;;6.20;99.90;;;;;;5092653;28;20177;-66
2022/04/17 05:58:16;;;;;;;7.33;6.67;;;6.30;99.90;;;;;;5094532;28;20205;-66
2022/04/17 06:00:43;;;;;;;7.77;7.07;;;6.50;99.90;;;;;;5091723;28;20169;-66
2022/04/17 06:03:09;;;;;;;7.73;7.20;;;6.80;99.90;;;;;;5092338;28;20193;-67
2022/04/17 06:05:34;;;;;;;6.90;6.50;;;7.20;99.90;;;;;;5090868;28;20665;-67
2022/04/17 06:08:00;;;;;;;7.20;6.80;;;7.60;99.90;;;;;;5092044;28;20169;-67
2022/04/17 06:10:25;;;;;;;6.70;6.40;;;8.10;99.90;;;;;;5092391;28;20647;-67
2022/04/17 06:12:51;;;;;;;7.70;6.17;;;8.50;99.90;;;;;;5092093;28;20708;-67
2022/04/17 06:15:16;;;;;;;5.93;5.53;;;8.90;99.90;;;;;;5090489;28;20177;-67
2022/04/17 06:17:43;;;;;;;6.53;6.03;;;9.30;99.90;;;;;;5091991;28;20197;-67
2022/04/17 06:20:11;;;;;;;6.10;5.63;;;9.50;99.90;;;;;;5090627;28;20243;-67
2022/04/17 06:22:37;;;;;;;5.70;5.30;;;9.90;99.90;;;;;;5092086;28;20174;-66
2022/04/17 06:25:10;;;;;;;5.50;5.10;;;10.30;99.90;;;;;;5091534;28;20265;-67
2022/04/17 06:27:41;;;;;;;5.67;5.17;;;10.70;99.90;;;;;;5090615;28;20173;-65
2022/04/17 06:30:13;;;;;;;5.70;5.20;;;10.90;99.90;;;;;;5090493;28;20264;-65
2022/04/17 06:32:39;;;;;;;5.40;4.90;;;11.10;99.90;;;;;;5090459;28;20547;-65
2022/04/17 06:35:07;;;;;;;5.40;5.00;;;11.30;99.90;;;;;;5090549;28;20665;-67
2022/04/17 06:38:06;;;;;;;5.90;5.40;;;11.20;99.90;;;;;;5090403;28;20215;-67
2022/04/17 06:40:33;;;;;;;5.60;5.20;;;11.30;99.90;;;;;;5091861;28;20260;-67
2022/04/17 06:43:01;;;;;;;5.37;4.93;;;11.50;99.90;;;;;;5090185;28;20178;-67
2022/04/17 06:45:28;;;;;;;5.10;4.80;;;11.60;99.90;;;;;;5091603;28;20177;-67
2022/04/17 06:47:55;;;;;;;6.27;4.90;;;11.60;99.90;;;;;;5090167;28;20174;-67
2022/04/17 06:50:22;;;;;;;5.57;5.17;;;11.70;99.90;;;;;;5091757;28;20173;-67
2022/04/17 06:52:48;;;;;;;5.27;4.80;;;11.80;99.90;;;;;;5090291;28;20177;-67
2022/04/17 06:55:14;;;;;;;5.57;5.10;;;11.80;99.90;;;;;;5091334;28;20226;-67
2022/04/17 06:57:50;;;;;;;5.00;4.70;;;12.10;99.90;;;;;;5090824;28;20277;-67
2022/04/17 07:00:17;;;;;;;5.40;5.00;;;12.60;99.90;;;;;;5091648;28;20172;-67
2022/04/17 07:02:43;;;;;;;5.67;5.37;;;12.90;99.90;;;;;;5091563;28;20304;-67
2022/04/17 07:05:10;;;;;;;5.53;5.13;;;13.10;99.90;;;;;;5089828;28;20176;-64
2022/04/17 07:07:36;;;;;;;5.73;5.33;;;13.30;99.90;;;;;;5090185;28;20181;-67
2022/04/17 07:10:02;;;;;;;5.73;5.33;;;13.40;99.90;;;;;;5091267;28;20169;-67
2022/04/17 07:12:31;;;;;;;5.60;5.20;;;13.50;99.90;;;;;;5091578;28;20172;-67
2022/04/17 07:15:00;;;;;;;5.80;5.40;;;13.70;99.90;;;;;;5089619;28;20204;-67
2022/04/17 07:17:44;;;;;;;4.90;4.60;;;13.80;99.90;;;;;;5091383;28;20198;-67
2022/04/17 07:20:10;;;;;;;5.07;4.70;;;14.00;99.90;;;;;;5091453;28;20174;-67
2022/04/17 07:22:38;;;;;;;4.87;4.50;;;14.00;99.90;;;;;;5091459;28;20166;-67
2022/04/17 07:25:05;;;;;;;5.10;4.70;;;14.20;99.90;;;;;;5090785;28;20706;-64
2022/04/17 07:27:41;;;;;;;4.90;4.37;;;14.50;99.90;;;;;;5091366;28;20177;-64
2022/04/17 07:30:17;;;;;;;5.03;4.63;;;14.40;99.90;;;;;;5089838;28;20205;-67
2022/04/17 07:32:44;;;;;;;4.90;4.50;;;14.50;99.90;;;;;;5091183;28;20181;-67
2022/04/17 07:35:11;;;;;;;4.70;4.37;;;14.70;99.90;;;;;;5090783;28;20646;-67
2022/04/17 07:37:36;;;;;;;5.00;4.50;;;15.00;99.90;;;;;;5091260;28;20649;-67
2022/04/17 07:40:14;;;;;;;4.97;4.57;;;15.30;99.90;;;;;;5091133;28;20252;-67
2022/04/17 07:42:42;;;;;;;4.80;4.37;;;15.20;99.90;;;;;;5091344;28;20209;-68
2022/04/17 07:45:08;;;;;;;5.10;4.73;;;15.30;99.90;;;;;;5090858;28;20600;-67
2022/04/17 07:47:34;;;;;;;4.63;4.23;;;15.50;99.90;;;;;;5093332;28;20642;-68
2022/04/17 07:50:00;;;;;;;5.10;4.60;;;15.70;99.90;;;;;;5094660;28;20181;-67
2022/04/17 07:52:25;;;;;;;6.13;4.37;;;15.80;99.90;;;;;;5093608;28;20173;-68
2022/04/17 07:54:51;;;;;;;6.40;4.90;;;15.80;99.90;;;;;;5094437;28;20206;-68
2022/04/17 07:57:16;;;;;;;4.83;4.17;;;16.00;99.90;;;;;;5092555;28;20169;-68
2022/04/17 07:59:42;;;;;;;4.67;4.23;;;16.20;99.90;;;;;;5094710;28;20170;-67
2022/04/17 08:02:21;;;;;;;5.30;4.93;;;16.40;99.90;;;;;;5094626;28;20177;-70
2022/04/17 08:04:50;;;;;;;4.97;4.67;;;16.10;99.90;;;;;;5094559;28;20272;-68
2022/04/17 08:07:16;;;;;;;4.97;4.30;;;15.80;99.90;;;;;;5093196;28;20165;-68
2022/04/17 08:09:41;;;;;;;5.13;4.83;;;16.00;99.90;;;;;;5093365;28;20521;-68
2022/04/17 08:12:07;;;;;;;5.07;4.77;;;16.10;99.90;;;;;;5094238;28;20176;-68
2022/04/17 08:14:33;;;;;;;4.30;4.00;;;16.40;99.90;;;;;;5094276;28;20662;-65
2022/04/17 08:16:58;;;;;;;4.53;4.23;;;16.70;99.90;;;;;;5094230;28;20215;-68
2022/04/17 08:19:24;;;;;;;5.83;4.47;;;17.00;99.90;;;;;;5094337;28;20315;-68
2022/04/17 08:21:51;;;;;;;4.60;4.13;;;17.10;99.90;;;;;;5093017;28;20173;-67
2022/04/17 08:24:18;;;;;;;4.20;3.90;;;17.00;99.70;;;;;;5094222;28;20624;-68
2022/04/17 08:26:43;;;;;;;4.17;3.90;;;16.90;99.60;;;;;;5092882;28;20539;-67
2022/04/17 08:29:10;;;;;;;4.50;4.20;;;16.90;99.90;;;;;;5094061;28;20181;-67
2022/04/17 08:31:35;;;;;;;4.53;4.10;;;16.90;99.20;;;;;;5094123;28;20603;-68
2022/04/17 08:34:01;;;;;;;4.33;4.03;;;16.90;99.90;;;;;;5093799;28;20189;-67
2022/04/17 08:36:27;;;;;;;4.10;3.80;;;16.90;98.30;;;;;;5094100;28;20260;-67
2022/04/17 08:38:52;;;;;;;4.60;4.20;;;17.10;99.60;;;;;;5093914;28;20254;-67
2022/04/17 08:41:20;;;;;;;4.33;3.90;;;17.40;98.90;;;;;;5094023;28;20172;-67
2022/04/17 08:43:46;;;;;;;4.53;3.90;;;17.40;98.90;;;;;;5092367;28;20205;-68
2022/04/17 08:46:12;;;;;;;4.17;3.87;;;17.50;98.20;;;;;;5091958;28;20194;-67
2022/04/17 08:48:38;;;;;;;4.17;3.77;;;17.50;98.30;;;;;;5092626;28;20642;-67
2022/04/17 08:51:05;;;;;;;4.67;4.27;;;17.40;97.20;;;;;;5092358;28;20184;-68
2022/04/17 08:53:34;;;;;;;4.33;4.03;;;17.40;97.70;;;;;;5092388;28;20194;-67
2022/04/17 08:56:00;;;;;;;4.70;4.23;;;17.50;98.50;;;;;;5093041;28;20223;-68
2022/04/17 08:58:26;;;;;;;4.30;4.00;;;17.50;96.80;;;;;;5090662;28;20301;-67
2022/04/17 09:00:51;;;;;;;4.40;4.10;;;17.30;97.00;;;;;;5093512;28;20169;-69
2022/04/17 09:03:17;;;;;;;4.53;4.10;;;17.50;96.90;;;;;;5092833;28;20279;-68
2022/04/17 09:05:43;;;;;;;4.50;4.20;;;17.60;97.90;;;;;;5094019;28;20168;-69
2022/04/17 09:08:23;;;;;;;4.20;3.83;;;18.00;98.00;;;;;;5092565;28;20181;-68
2022/04/17 09:10:59;;;;;;;3.90;3.70;;;18.20;96.30;;;;;;5093558;28;20193;-66
2022/04/17 09:13:32;;;;;;;4.67;4.07;;;17.90;97.50;;;;;;5093352;28;20268;-65
2022/04/17 09:16:02;;;;;;;4.53;4.20;;;18.10;96.20;;;;;;5092866;28;20226;-67
2022/04/17 09:18:29;;;;;;;3.80;3.60;;;17.90;96.50;;;;;;5093387;28;20243;-67
2022/04/17 09:20:56;;;;;;;5.43;4.30;;;18.10;96.40;;;;;;5093271;28;20226;-65
2022/04/17 09:23:36;;;;;;;4.37;4.07;;;18.40;97.30;;;;;;5091374;28;20224;-65
2022/04/17 09:26:03;;;;;;;4.80;4.30;;;18.60;96.90;;;;;;5090622;28;20227;-65
2022/04/17 09:28:37;;;;;;;4.50;4.10;;;18.80;96.30;;;;;;5093123;28;20666;-65
2022/04/17 09:31:11;;;;;;;4.47;4.07;;;19.00;95.90;;;;;;5092430;28;20173;-65
2022/04/17 09:33:39;;;;;;;4.10;3.80;;;19.30;96.10;;;;;;5071003;28;20277;-65
2022/04/17 09:36:05;;;;;;;3.90;3.53;;;19.70;96.00;;;;;;5081836;28;20187;-65
2022/04/17 09:38:33;;;;;;;4.75;3.97;;;19.90;96.70;;;;;;5082241;28;20213;-65
2022/04/17 09:41:13;;;;;;;4.20;3.90;;;19.80;94.70;;;;;;5085631;28;20188;-65
2022/04/17 09:43:39;;;;;;;3.97;3.78;;;19.70;95.90;;;;;;5090867;28;20701;-66
2022/04/17 09:46:06;;;;;;;4.07;3.78;;;19.80;93.20;;;;;;5091286;28;20177;-65
2022/04/17 09:48:40;;;;;;;3.70;3.40;;;19.90;95.60;;;;;;5083698;28;20722;-66
2022/04/17 09:51:22;;;;;;;9.63;8.93;;;20.20;95.60;;;;;;5081276;28;20757;-65
2022/04/17 09:54:03;;;;;;;10.07;9.27;;;20.60;96.40;;;;;;5096560;28;20224;-66
2022/04/17 09:56:39;;;;;;;3.95;3.70;;;21.10;94.80;;;;;;5082824;28;20276;-65
2022/04/17 09:59:18;;;;;;;4.22;3.90;;;21.20;93.40;;;;;;5083984;28;20212;-66
2022/04/17 10:01:49;;;;;;;4.20;3.90;;;21.00;91.70;;;;;;5075813;28;20190;-66
2022/04/17 10:04:22;;;;;;;3.87;3.50;;;20.50;93.80;;;;;;5080595;28;20235;-65
2022/04/17 10:06:49;;;;;;;3.83;3.53;;;20.80;92.90;;;;;;5082386;28;20177;-66
2022/04/17 10:09:15;;;;;;;4.60;4.20;;;21.10;93.80;;;;;;5081512;28;20256;-66
2022/04/17 10:11:41;;;;;;;4.70;4.40;;;20.90;91.90;;;;;;5072240;28;20208;-67
2022/04/17 10:14:07;;;;;;;4.40;4.00;;;20.60;91.70;;;;;;5082784;28;20212;-66
2022/04/17 10:16:34;;;;;;;5.65;5.15;;;20.80;92.80;;;;;;5082589;28;20183;-67
2022/04/17 10:19:06;;;;;;;4.28;3.97;;;20.90;91.30;;;;;;5083474;28;20284;-66
2022/04/17 10:21:35;;;;;;;8.02;6.63;;;21.10;90.50;;;;;;5091739;28;20180;-65
2022/04/17 10:24:02;;;;;;;4.55;4.15;;;20.50;90.40;;;;;;5078367;28;20719;-66
2022/04/17 10:26:32;;;;;;;10.85;9.73;;;20.30;92.40;;;;;;5079402;28;20177;-66
2022/04/17 10:29:01;;;;;;;5.18;4.65;;;20.60;91.50;;;;;;5078009;28;20276;-66
2022/04/17 10:31:42;;;;;;;4.40;4.00;;;21.00;91.30;;;;;;5081147;28;20651;-67
2022/04/17 10:34:41;;;;;;;6.30;5.72;;;21.40;92.30;;;;;;5080212;28;20308;-67
2022/04/17 10:37:31;;;;;;;4.93;4.53;;;21.70;91.10;;;;;;5079774;28;20182;-67
2022/04/17 10:39:58;;;;;;;5.20;4.10;;;21.80;91.10;;;;;;5076671;28;20213;-66
2022/04/17 10:42:37;;;;;;;4.20;3.90;;;21.80;90.40;;;;;;5086379;28;20176;-66
2022/04/17 10:45:09;;;;;;;3.83;3.60;;;21.90;90.20;;;;;;5081010;28;20209;-67
2022/04/17 10:47:34;;;;;;;3.63;3.40;;;22.00;86.30;;;;;;5081123;28;20671;-66
2022/04/17 10:50:07;;;;;;;3.40;3.20;;;21.70;87.00;;;;;;5076068;28;20266;-65
2022/04/17 10:52:33;;;;;;;3.70;3.40;;;21.80;89.00;;;;;;5082089;28;20181;-66
2022/04/17 10:55:18;;;;;;;4.63;3.30;;;21.90;89.20;;;;;;5085454;28;20242;-66
2022/04/17 10:57:50;;;;;;;3.53;3.20;;;22.20;84.60;;;;;;5071102;28;20206;-65
2022/04/17 11:00:38;;;;;;;3.50;3.30;;;22.20;84.00;;;;;;5080772;28;20181;-65
2022/04/17 11:03:19;;;;;;;4.10;3.80;;;22.10;83.90;;;;;;5088332;28;20200;-66
2022/04/17 11:08:47;;;;;;;3.80;3.60;;;21.80;88.90;;;;;;5087533;28;20540;-65
2022/04/17 11:11:13;;;;;;;3.65;3.35;;;22.10;84.00;;;;;;5084786;28;20182;-65
2022/04/17 11:14:04;;;;;;;3.83;3.30;;;22.10;88.00;;;;;;5078311;28;20197;-66
2022/04/17 11:16:50;;;;;;;3.80;3.40;;;22.10;84.40;;;;;;5080477;28;20185;-66
2022/04/17 11:19:18;;;;;;;3.65;3.45;;;22.30;85.50;;;;;;5073674;28;20725;-66
2022/04/17 11:21:47;;;;;;;3.80;3.50;;;22.10;83.40;;;;;;5074287;28;20658;-66
2022/04/17 11:24:13;;;;;;;3.67;3.28;;;21.90;83.90;;;;;;5083376;28;20198;-66
2022/04/17 11:27:02;;;;;;;3.90;3.60;;;21.60;82.00;;;;;;5088099;28;20185;-65
2022/04/17 11:29:38;;;;;;;3.50;3.20;;;21.70;85.80;;;;;;5097420;28;20209;-66
2022/04/17 11:32:26;;;;;;;3.83;3.42;;;22.10;85.30;;;;;;5092738;28;20256;-66
2022/04/17 11:34:55;;;;;;;3.70;3.30;;;22.70;88.90;;;;;;5086398;28;20243;-66
2022/04/17 11:37:24;;;;;;;5.47;3.60;;;23.10;85.40;;;;;;5088845;28;20174;-65
2022/04/17 11:39:51;;;;;;;3.95;3.65;;;23.30;83.80;;;;;;5087592;28;20227;-66
2022/04/17 11:42:17;;;;;;;3.63;3.33;;;23.60;86.80;;;;;;5089193;28;20184;-66
2022/04/17 11:44:47;;;;;;;3.60;3.30;;;24.00;87.00;;;;;;5091471;28;20209;-65
2022/04/17 11:47:22;;;;;;;3.30;3.10;;;24.10;85.90;;;;;;5083186;28;20177;-65
2022/04/17 11:49:49;;;;;;;3.42;3.15;;;23.90;84.20;;;;;;5090662;28;20268;-66
2022/04/17 11:52:16;;;;;;;3.10;2.90;;;23.70;84.10;;;;;;5082516;28;21093;-66
2022/04/17 11:54:43;;;;;;;3.63;3.38;;;23.60;81.00;;;;;;5087955;28;20197;-65
2022/04/17 11:57:10;;;;;;;4.00;3.50;;;23.40;82.20;;;;;;5080210;28;20347;-65
2022/04/17 11:59:52;;;;;;;3.72;3.33;;;23.30;80.90;;;;;;5080460;28;20213;-66
2022/04/17 12:02:28;;;;;;;5.03;3.80;;;23.40;81.10;;;;;;5083208;28;20177;-66
2022/04/17 12:04:56;;;;;;;3.30;3.10;;;23.30;82.60;;;;;;5081808;28;20201;-65
2022/04/17 12:07:26;;;;;;;3.60;3.30;;;23.40;84.50;;;;;;5084125;28;20274;-65
2022/04/17 12:10:09;;;;;;;3.40;3.20;;;23.40;80.70;;;;;;5084648;28;20209;-66
2022/04/17 12:12:36;;;;;;;3.45;3.15;;;23.50;82.50;;;;;;5081152;28;20188;-65
2022/04/17 12:15:05;;;;;;;3.75;3.47;;;23.80;83.30;;;;;;5085048;28;20213;-66
2022/04/17 12:17:32;;;;;;;3.45;3.25;;;24.00;79.10;;;;;;5078541;28;20498;-66
2022/04/17 12:19:58;;;;;;;3.95;3.10;;;23.90;80.30;;;;;;5082347;28;20265;-67
2022/04/17 12:22:24;;;;;;;3.65;3.40;;;23.80;81.50;;;;;;5085614;28;20186;-66
2022/04/17 12:24:51;;;;;;;3.60;3.40;;;23.80;80.00;;;;;;5087064;28;20210;-66
2022/04/17 12:27:19;;;;;;;3.20;3.00;;;23.80;79.80;;;;;;5082267;28;20548;-67
2022/04/17 12:29:58;;;;;;;3.40;3.20;;;23.90;78.20;;;;;;5088340;28;20186;-66
2022/04/17 12:32:26;;;;;;;3.70;3.40;;;24.10;83.70;;;;;;5083667;28;20177;-65
2022/04/17 12:34:59;;;;;;;4.25;3.42;;;24.40;74.50;;;;;;5084950;28;20202;-64
2022/04/17 12:37:31;;;;;;;3.40;3.20;;;24.20;75.70;;;;;;5086807;28;20181;-66
2022/04/17 12:40:14;;;;;;;5.18;4.63;;;24.00;76.50;;;;;;5085880;28;20201;-66
2022/04/17 12:42:40;;;;;;;4.97;3.25;;;23.70;76.70;;;;;;5086696;28;20225;-66
2022/04/17 12:45:08;;;;;;;3.30;3.10;;;23.70;75.90;;;;;;5085392;28;20194;-65
2022/04/17 12:47:36;;;;;;;3.10;2.90;;;23.50;75.30;;;;;;5086014;28;20744;-66
2022/04/17 12:50:11;;;;;;;3.60;3.20;;;23.70;80.00;;;;;;5082394;28;20185;-66
2022/04/17 12:52:37;;;;;;;3.65;3.08;;;24.00;81.60;;;;;;5088702;28;20169;-65
2022/04/17 12:55:10;;;;;;;3.95;3.15;;;24.30;74.80;;;;;;5077891;28;20275;-66
2022/04/17 12:57:37;;;;;;;3.38;3.17;;;24.10;72.50;;;;;;5088615;28;20233;-66
2022/04/17 13:00:27;;;;;;;3.28;3.00;;;23.70;75.10;;;;;;5080709;28;20606;-66
2022/04/17 13:03:13;;;;;;;3.10;2.90;;;23.70;77.70;;;;;;5081464;28;20277;-66
2022/04/17 13:05:39;;;;;;;3.10;2.90;;;23.90;76.60;;;;;;5076676;28;20170;-66
2022/04/17 13:08:06;;;;;;;3.22;3.03;;;24.00;78.40;;;;;;5084107;28;20260;-66
2022/04/17 13:10:33;;;;;;;3.30;3.10;;;24.00;77.00;;;;;;5086003;28;20331;-66
2022/04/17 13:12:58;;;;;;;3.20;3.00;;;24.10;74.90;;;;;;5076472;28;20646;-66
2022/04/17 13:15:33;;;;;;;3.25;3.05;;;23.90;68.90;;;;;;5080946;28;20249;-65
2022/04/17 13:17:58;;;;;;;3.33;3.13;;;23.50;72.50;;;;;;5084758;28;20201;-65